Time;durP1;ratioP1;P1;durP2;ratioP2;P2;SDS_P1;SDS_P2;PMS_P1;PMS_P2;Temp;Humidity;BMP_temperature;BMP_pressure;BME280_temperature;BME280_humidity;BME280_pressure;Samples;Min_cycle;Max_cycle;Signal;HPM_P1;HPM_P2
2024/03/25 00:00:15;;;;;;;1.80;0.93;;;;;;;6.49;100.00;95496.66;4976358;28;20595;-72
2024/03/25 00:02:42;;;;;;;1.27;0.83;;;;;;;6.57;100.00;95504.47;4976614;28;20203;-72
2024/03/25 00:05:10;;;;;;;6.83;1.20;;;;;;;6.58;100.00;95513.94;4976092;28;20214;-69
2024/03/25 00:07:36;;;;;;;1.77;0.90;;;;;;;6.46;100.00;95512.66;4975712;28;20214;-73
2024/03/25 00:10:03;;;;;;;2.00;1.00;;;;;;;6.24;100.00;95504.75;4975460;28;20203;-72
2024/03/25 00:12:28;;;;;;;0.90;0.60;;;;;;;6.15;100.00;95511.78;4976475;28;20218;-72
2024/03/25 00:14:55;;;;;;;1.37;1.00;;;;;;;6.22;100.00;95504.94;4976090;28;20219;-68
2024/03/25 00:17:20;;;;;;;1.30;0.97;;;;;;;6.12;100.00;95513.91;4976121;28;20685;-72
2024/03/25 00:19:50;;;;;;;1.53;1.00;;;;;;;6.21;100.00;95508.50;4976194;28;20218;-70
2024/03/25 00:22:16;;;;;;;2.93;0.90;;;;;;;6.07;100.00;95509.22;4976045;28;20207;-72
2024/03/25 00:24:43;;;;;;;1.07;0.97;;;;;;;6.11;100.00;95512.31;4975922;28;20205;-70
2024/03/25 00:27:08;;;;;;;1.70;1.00;;;;;;;6.03;100.00;95512.31;4975769;28;20222;-70
2024/03/25 00:29:34;;;;;;;1.13;0.80;;;;;;;6.08;100.00;95516.06;4976682;28;20221;-72
2024/03/25 00:32:00;;;;;;;2.37;0.93;;;;;;;6.10;100.00;95513.28;4975921;28;20574;-73
2024/03/25 00:34:26;;;;;;;8.70;2.10;;;;;;;6.10;100.00;95516.72;4976550;28;20515;-72
2024/03/25 00:36:54;;;;;;;3.17;1.47;;;;;;;6.08;100.00;95513.47;4976581;28;20742;-72
2024/03/25 00:39:20;;;;;;;2.23;1.00;;;;;;;6.05;100.00;95518.19;4974689;28;20242;-69
2024/03/25 00:41:46;;;;;;;1.37;1.00;;;;;;;6.07;100.00;95514.44;4976167;28;20793;-70
2024/03/25 00:44:12;;;;;;;1.03;0.83;;;;;;;6.01;100.00;95516.06;4976102;28;20241;-72
2024/03/25 00:46:38;;;;;;;3.20;1.13;;;;;;;6.19;100.00;95520.13;4976521;28;20200;-72
2024/03/25 00:49:04;;;;;;;1.97;0.97;;;;;;;6.24;100.00;95516.03;4976152;28;20719;-71
2024/03/25 00:51:30;;;;;;;2.10;1.10;;;;;;;5.88;100.00;95513.16;4975774;28;20203;-73
2024/03/25 00:53:58;;;;;;;1.10;1.00;;;;;;;6.35;100.00;95515.66;4975573;28;20643;-72
2024/03/25 00:56:23;;;;;;;1.20;1.10;;;;;;;5.99;100.00;95513.63;4976868;28;20221;-72
2024/03/25 00:58:50;;;;;;;4.90;1.40;;;;;;;6.04;100.00;95516.56;4975058;28;20223;-72
2024/03/25 01:01:16;;;;;;;3.70;1.20;;;;;;;6.21;100.00;95513.75;4976046;28;20207;-71
2024/03/25 01:03:42;;;;;;;4.30;1.10;;;;;;;6.10;100.00;95508.88;4975755;28;20206;-72
2024/03/25 01:06:08;;;;;;;3.80;1.13;;;;;;;6.19;100.00;95505.25;4974754;28;20222;-71
2024/03/25 01:08:34;;;;;;;7.80;1.63;;;;;;;5.97;100.00;95501.69;4975452;28;20628;-71
2024/03/25 01:11:01;;;;;;;2.17;1.20;;;;;;;6.11;100.00;95502.66;4974843;28;20202;-70
2024/03/25 01:13:27;;;;;;;4.47;1.30;;;;;;;6.21;100.00;95492.81;4976200;28;20454;-72
2024/03/25 01:15:53;;;;;;;4.37;1.10;;;;;;;5.91;100.00;95487.50;4975574;28;20203;-70
2024/03/25 01:18:19;;;;;;;3.03;1.10;;;;;;;5.73;100.00;95496.50;4975215;28;20720;-69
2024/03/25 01:20:45;;;;;;;1.37;1.07;;;;;;;5.97;100.00;95494.69;4975312;28;20344;-71
2024/03/25 01:23:11;;;;;;;1.30;0.93;;;;;;;5.95;100.00;95493.22;4975054;28;20218;-69
2024/03/25 01:25:36;;;;;;;1.80;1.30;;;;;;;6.05;100.00;95492.84;4975338;28;20676;-70
2024/03/25 01:28:04;;;;;;;1.70;1.07;;;;;;;5.99;100.00;95484.88;4974656;28;20230;-71
2024/03/25 01:30:30;;;;;;;1.67;0.97;;;;;;;5.86;100.00;95486.38;4975774;28;20210;-71
2024/03/25 01:32:57;;;;;;;2.23;1.50;;;;;;;5.94;100.00;95486.34;4975443;28;20203;-72
2024/03/25 01:35:22;;;;;;;1.63;0.90;;;;;;;5.92;100.00;95486.53;4975481;28;20234;-70
2024/03/25 01:37:50;;;;;;;1.13;0.70;;;;;;;5.96;100.00;95487.00;4974554;28;20656;-71
2024/03/25 01:40:15;;;;;;;1.83;1.43;;;;;;;5.95;100.00;95474.94;4975288;28;20203;-72
2024/03/25 01:42:42;;;;;;;3.37;1.33;;;;;;;6.04;100.00;95478.13;4975268;28;20203;-72
2024/03/25 01:45:10;;;;;;;3.10;1.30;;;;;;;5.97;100.00;95479.00;4975128;28;20230;-69
2024/03/25 01:47:39;;;;;;;4.43;1.27;;;;;;;5.79;100.00;95470.56;4974266;28;20203;-70
2024/03/25 01:50:06;;;;;;;1.37;1.10;;;;;;;5.85;100.00;95484.75;4975628;28;20569;-71
2024/03/25 01:52:33;;;;;;;2.40;1.07;;;;;;;5.76;100.00;95477.91;4974603;28;20343;-69
2024/03/25 01:54:58;;;;;;;2.17;1.40;;;;;;;5.87;100.00;95488.81;4975043;28;20735;-69
2024/03/25 01:57:26;;;;;;;1.90;1.20;;;;;;;5.85;100.00;95488.16;4974843;28;20211;-72
2024/03/25 01:59:52;;;;;;;2.83;1.73;;;;;;;5.82;100.00;95479.88;4975341;28;20215;-68
2024/03/25 02:02:20;;;;;;;2.83;1.27;;;;;;;5.92;100.00;95480.47;4976331;28;20214;-73
2024/03/25 02:04:45;;;;;;;3.10;1.83;;;;;;;5.67;100.00;95481.47;4973861;28;20203;-72
2024/03/25 02:07:13;;;;;;;2.10;1.30;;;;;;;5.67;100.00;95476.25;4974216;28;20222;-71
2024/03/25 02:09:39;;;;;;;2.97;1.30;;;;;;;5.53;100.00;95472.50;4974956;28;20399;-70
2024/03/25 02:12:09;;;;;;;3.07;1.23;;;;;;;5.58;100.00;95479.84;4974211;28;20237;-69
2024/03/25 02:14:34;;;;;;;4.70;1.67;;;;;;;5.77;100.00;95482.97;4974862;28;20767;-72
2024/03/25 02:17:02;;;;;;;5.17;1.67;;;;;;;5.82;100.00;95479.88;4975044;28;20364;-71
2024/03/25 02:19:31;;;;;;;4.00;1.47;;;;;;;5.90;100.00;95477.22;4975116;28;20238;-70
2024/03/25 02:21:57;;;;;;;3.67;1.17;;;;;;;5.72;100.00;95481.81;4974983;28;20211;-71
2024/03/25 02:24:26;;;;;;;2.20;1.37;;;;;;;5.84;100.00;95477.88;4974231;28;20209;-72
2024/03/25 02:26:54;;;;;;;1.17;0.97;;;;;;;5.76;100.00;95480.50;4974229;28;20293;-71
2024/03/25 02:29:19;;;;;;;8.37;2.00;;;;;;;5.68;100.00;95480.50;4973965;28;20235;-70
2024/03/25 02:31:47;;;;;;;5.63;1.90;;;;;;;5.60;100.00;95485.72;4975220;28;20203;-73
2024/03/25 02:34:12;;;;;;;4.77;1.50;;;;;;;5.79;100.00;95482.78;4974128;28;20234;-72
2024/03/25 02:36:39;;;;;;;3.70;1.50;;;;;;;5.80;100.00;95484.44;4974932;28;20213;-72
2024/03/25 02:39:05;;;;;;;8.00;1.73;;;;;;;5.67;100.00;95487.50;4973697;28;20620;-71
2024/03/25 02:41:34;;;;;;;3.57;1.37;;;;;;;5.77;100.00;95479.53;4974898;28;20297;-72
2024/03/25 02:44:01;;;;;;;5.57;1.63;;;;;;;5.76;100.00;95483.13;4974028;28;20207;-72
2024/03/25 02:46:28;;;;;;;2.80;1.47;;;;;;;5.79;100.00;95485.41;4974870;28;20203;-68
2024/03/25 02:48:53;;;;;;;2.63;1.50;;;;;;;5.71;100.00;95482.78;4973432;28;20229;-69
2024/03/25 02:51:20;;;;;;;6.20;1.20;;;;;;;5.91;100.00;95478.84;4974444;28;20214;-72
2024/03/25 02:53:46;;;;;;;6.83;2.07;;;;;;;5.77;100.00;95476.94;4974632;28;20206;-69
2024/03/25 02:56:12;;;;;;;2.77;1.40;;;;;;;5.83;100.00;95486.69;4974240;28;20237;-72
2024/03/25 02:58:38;;;;;;;2.87;1.50;;;;;;;5.60;100.00;95485.72;4973072;28;20237;-69
2024/03/25 03:01:05;;;;;;;4.67;1.67;;;;;;;5.79;100.00;95480.16;4974602;28;20658;-70
2024/03/25 03:03:31;;;;;;;2.50;1.47;;;;;;;5.70;100.00;95487.19;4974253;28;20222;-72
2024/03/25 03:06:03;;;;;;;4.53;1.30;;;;;;;6.09;100.00;95483.69;4972811;28;20365;-69
2024/03/25 03:08:29;;;;;;;6.17;1.60;;;;;;;5.90;100.00;95485.88;4972074;28;20234;-72
2024/03/25 03:10:55;;;;;;;2.50;1.20;;;;;;;6.06;100.00;95483.22;4973249;28;20199;-70
2024/03/25 03:13:21;;;;;;;3.10;1.40;;;;;;;6.03;100.00;95483.53;4974725;28;20218;-73
2024/03/25 03:15:47;;;;;;;3.13;1.50;;;;;;;6.06;100.00;95491.88;4973887;28;20712;-69
2024/03/25 03:18:14;;;;;;;2.60;1.30;;;;;;;5.92;100.00;95481.31;4977615;28;20230;-72
2024/03/25 03:20:40;;;;;;;4.67;1.50;;;;;;;5.79;100.00;95482.78;4977328;28;20227;-72
2024/03/25 03:23:06;;;;;;;1.10;1.00;;;;;;;5.82;100.00;95490.31;4976883;28;20210;-72
2024/03/25 03:25:32;;;;;;;2.93;1.50;;;;;;;5.51;100.00;95486.69;4977245;28;20711;-71
2024/03/25 03:27:58;;;;;;;2.63;1.20;;;;;;;5.60;100.00;95483.94;4976592;28;20730;-72
2024/03/25 03:30:24;;;;;;;3.07;1.03;;;;;;;5.46;100.00;95483.78;4977537;28;20210;-69
2024/03/25 03:32:50;;;;;;;5.80;1.40;;;;;;;5.43;100.00;95488.53;4977168;28;20211;-70
2024/03/25 03:35:18;;;;;;;2.83;1.67;;;;;;;5.84;100.00;95473.47;4976844;28;20756;-69
2024/03/25 03:37:43;;;;;;;2.23;1.30;;;;;;;5.55;100.00;95477.59;4976536;28;20234;-68
2024/03/25 03:40:11;;;;;;;2.17;1.40;;;;;;;5.44;100.00;95477.91;4976292;28;20233;-69
2024/03/25 03:42:36;;;;;;;3.07;1.40;;;;;;;5.38;100.00;95481.16;4977725;28;20215;-70
2024/03/25 03:45:03;;;;;;;2.13;1.43;;;;;;;5.48;100.00;95473.97;4976579;28;20195;-69
2024/03/25 03:47:29;;;;;;;3.43;1.67;;;;;;;5.75;100.00;95471.00;4975971;28;20743;-69
2024/03/25 03:49:55;;;;;;;5.53;2.23;;;;;;;5.37;100.00;95468.28;4976681;28;20233;-72
2024/03/25 03:52:22;;;;;;;1.93;1.20;;;;;;;5.60;100.00;95470.03;4977540;28;20618;-71
2024/03/25 03:54:48;;;;;;;3.97;2.10;;;;;;;5.36;100.00;95469.25;4977038;28;20723;-72
2024/03/25 03:57:14;;;;;;;3.07;1.57;;;;;;;5.66;100.00;95470.19;4976031;28;20214;-73
2024/03/25 03:59:40;;;;;;;6.07;1.93;;;;;;;5.74;100.00;95466.75;4977636;28;20226;-72
2024/03/25 04:02:06;;;;;;;5.07;1.60;;;;;;;5.65;100.00;95480.81;4976529;28;20203;-71
2024/03/25 04:04:32;;;;;;;2.20;1.43;;;;;;;5.44;100.00;95481.31;4976205;28;20211;-68
2024/03/25 04:06:58;;;;;;;2.33;1.63;;;;;;;5.51;100.00;95477.09;4976876;28;20206;-70
2024/03/25 04:09:25;;;;;;;1.97;1.50;;;;;;;5.47;100.00;95481.00;4976528;28;20708;-69
2024/03/25 04:11:51;;;;;;;2.27;1.60;;;;;;;5.50;100.00;95474.66;4975827;28;20202;-72
2024/03/25 04:14:17;;;;;;;5.03;1.53;;;;;;;5.41;100.00;95480.84;4977465;28;20522;-73
2024/03/25 04:16:43;;;;;;;2.60;1.33;;;;;;;5.07;100.00;95472.34;4975721;28;20590;-70
2024/03/25 04:19:09;;;;;;;3.73;1.30;;;;;;;5.14;100.00;95483.78;4975980;28;20715;-73
2024/03/25 04:21:35;;;;;;;2.67;1.43;;;;;;;5.25;100.00;95486.06;4977056;28;20757;-71
2024/03/25 04:24:01;;;;;;;1.93;1.33;;;;;;;5.10;100.00;95490.28;4977295;28;20209;-69
2024/03/25 04:26:28;;;;;;;2.50;1.33;;;;;;;5.22;100.00;95485.56;4976866;28;20209;-72
2024/03/25 04:28:54;;;;;;;2.83;1.63;;;;;;;5.11;100.00;95491.13;4974535;28;20617;-71
2024/03/25 04:31:20;;;;;;;3.13;1.80;;;;;;;5.10;100.00;95492.91;4976477;28;20590;-73
2024/03/25 04:33:46;;;;;;;2.57;1.70;;;;;;;4.89;100.00;95489.94;4975950;28;20202;-70
2024/03/25 04:36:12;;;;;;;3.60;1.60;;;;;;;4.97;100.00;95496.97;4976343;28;20241;-72
